Latest Weather Observations for Albion Park

IDN60801

Issued at 8:42 pm EDT Thursday 18 October 2018 (issued every 10 minutes, with the page automatically refreshed every 10 minutes)

About weather observations | Map of weather stations | Latest weather observations for NSW | Other Formats
Station Details ID: 068241 Name: WOLLONGONG AIRPORT Lat: -34.56 Lon: 150.79 Height: 8.0 m
Data from the previous 72 hours. | See also: Recent months at Albion Park
Date/Time
EDT
Temp
°C
App
Temp
°C
Dew
Point
°C
Rel
Hum
%
Delta-T
°C
Wind Press
QNH
hPa
Press
MSL
hPa
Rain since
9am
mm
Dir  Spd
km/h
Gust
km/h
Spd
kts
Gust
kts
18/08:30pm 19.5 20.4 19.2 98 0.2 NE 13 19 7 10 1016.7 1016.7 19.6
18/08:00pm 19.6 21.5 18.6 94 0.6 NW 6 7 3 4 1016.4 1016.4 19.4
18/07:30pm 20.1 22.3 19.1 94 0.6 NW 6 11 3 6 1016.5 1016.5 19.0
18/07:00pm 20.5 23.6 18.6 89 1.2 CALM 0 0 0 0 1015.9 1015.9 19.0
18/06:30pm 20.7 23.7 18.5 87 1.4 CALM 0 0 0 0 1015.2 1015.2 19.0
18/06:00pm 20.5 23.5 19.2 92 0.8 NNE 2 7 1 4 1015.1 1015.1 19.0
18/05:30pm 19.0 20.7 18.5 97 0.3 NNW 7 11 4 6 1015.2 1015.2 19.0
18/05:22pm 19.3 21.5 19.1 99 0.1 NNE 6 13 3 7 1015.1 1015.1 19.0
18/05:07pm 19.0 20.4 18.7 98 0.2 WSW 9 19 5 10 1015.0 1015.0 19.0
18/05:00pm 18.6 18.1 17.9 96 0.4 NW 17 28 9 15 1014.8 1014.8 17.0
18/04:35pm 19.9 17.9 19.2 96 0.4 SW 28 35 15 19 1015.0 1015.0 3.0
18/04:31pm 20.2 19.3 19.0 93 0.8 SSW 22 35 12 19 1014.8 1014.8 0.2
18/04:30pm 20.3 19.9 19.0 92 0.8 SSW 19 33 10 18 1014.8 1014.8 0.2
18/04:00pm 21.3 20.9 18.9 86 1.5 ENE 19 32 10 17 1014.2 1014.2 0.0
18/03:30pm 21.5 20.1 18.9 85 1.6 ENE 24 32 13 17 1014.6 1014.6 0.0
18/03:00pm 21.3 19.8 18.5 84 1.8 NE 24 33 13 18 1014.5 1014.5 0.0
18/02:30pm 22.7 20.7 19.1 80 2.3 NE 28 37 15 20 1014.7 1014.7 0.0
18/02:00pm 22.8 21.5 19.0 79 2.4 ENE 24 32 13 17 1015.2 1015.2 0.0
18/01:30pm 22.8 21.9 19.0 79 2.4 ENE 22 28 12 15 1015.4 1015.4 0.0
18/01:00pm 22.8 21.6 18.3 76 2.8 NE 22 28 12 15 1015.6 1015.6 0.0
18/12:30pm 22.8 21.6 19.2 80 2.3 NE 24 32 13 17 1015.8 1015.8 0.0
18/12:00pm 22.5 21.1 18.9 80 2.3 NE 24 32 13 17 1016.1 1016.1 0.0
18/11:30am 22.2 21.0 18.4 79 2.4 NE 22 28 12 15 1016.1 1016.1 0.0
18/11:00am 21.8 21.2 17.6 77 2.6 NE 17 22 9 12 1016.5 1016.5 0.0
18/10:30am 22.0 21.7 16.5 71 3.3 NNW 13 17 7 9 1016.6 1016.6 0.0
18/10:00am 21.2 21.0 16.6 75 2.8 N 13 17 7 9 1016.9 1016.9 0.0
18/09:30am 20.8 20.1 16.4 76 2.7 N 15 20 8 11 1017.1 1017.1 0.0
18/09:00am 20.2 18.7 16.4 79 2.3 N 19 22 10 12 1017.1 1017.1 6.2
18/08:30am 18.8 19.4 17.6 93 0.7 NW 11 13 6 7 1017.1 1017.1 6.2
18/08:00am 16.1 16.8 16.1 100 0.0 WSW 7 11 4 6 1017.1 1017.1 6.2
18/07:30am 14.3 14.9 14.3 100 0.0 W 4 7 2 4 1017.0 1017.0 6.2
18/07:00am 14.3 14.5 14.3 100 0.0 WNW 6 7 3 4 1016.6 1016.6 6.2
18/06:30am 13.9 13.0 13.7 99 0.1 W 11 13 6 7 1016.2 1016.2 6.0
18/06:10am 13.3 12.9 13.1 99 0.1 W 7 9 4 5 1016.1 1016.1 6.0
18/06:00am 13.1 13.3 12.9 99 0.1 WSW 4 9 2 5 1015.8 1015.8 6.0
18/05:50am 13.0 13.9 12.8 99 0.1 CALM 0 2 0 1 1015.6 1015.6 6.0
18/05:30am 13.5 14.2 13.3 99 0.1 S 2 6 1 3 1015.3 1015.3 6.0
18/05:00am 13.6 14.7 13.4 99 0.1 CALM 0 0 0 0 1015.0 1015.0 6.0
18/04:30am 13.7 13.7 13.5 99 0.1 SSW 6 7 3 4 1014.9 1014.9 6.0
18/04:00am 14.2 14.7 14.0 99 0.1 WSW 4 7 2 4 1014.7 1014.7 6.0
18/03:44am 14.4 14.4 14.2 99 0.1 W 7 11 4 6 1014.7 1014.7 6.0
18/03:39am 14.5 14.2 14.3 99 0.1 W 9 13 5 7 1014.7 1014.7 6.0
18/03:30am 14.3 13.5 14.1 99 0.1 WNW 11 15 6 8 1014.7 1014.7 6.0
18/03:19am 14.5 14.5 14.3 99 0.1 WNW 7 9 4 5 1014.9 1014.9 6.0
18/03:17am 14.6 14.7 14.4 99 0.1 WNW 7 11 4 6 1014.9 1014.9 6.0
18/03:00am 14.7 13.7 14.5 99 0.1 W 13 15 7 8 1014.9 1014.9 6.0
18/02:30am 15.2 15.7 15.0 99 0.1 W 6 7 3 4 1015.0 1015.0 6.0
18/02:00am 15.2 15.1 15.0 99 0.1 WSW 9 9 5 5 1015.3 1015.3 6.0
18/01:40am 15.0 16.6 14.8 99 0.1 CALM 0 0 0 0 1015.5 1015.5 6.0
18/01:30am 15.8 17.3 15.6 99 0.1 ENE 2 7 1 4 1015.6 1015.6 6.0
18/01:00am 15.7 17.5 15.5 99 0.1 CALM 0 0 0 0 1015.6 1015.6 6.0
18/12:30am 15.9 17.8 15.7 99 0.1 CALM 0 0 0 0 1015.5 1015.5 6.0
18/12:00am 16.7 18.9 16.5 99 0.1 CALM 0 6 0 3 1015.8 1015.8 6.0
 
Date/Time
EDT
Temp
°C
App
Temp
°C
Dew
Point
°C
Rel
Hum
%
Delta-T
°C
Wind Press
QNH
hPa
Press
MSL
hPa
Rain since
9am
mm
Dir  Spd
km/h
Gust
km/h
Spd
kts
Gust
kts
17/11:30pm 17.0 17.2 16.8 99 0.1 WSW 11 15 6 8 1016.1 1016.1 6.0
17/11:22pm 17.0 16.8 16.8 99 0.1 WSW 13 15 7 8 1016.3 1016.3 5.8
17/11:00pm 16.8 18.7 16.6 99 0.1 WNW 2 7 1 4 1016.9 1016.9 5.8
17/10:48pm 16.9 19.2 16.7 99 0.1 CALM 0 0 0 0 1017.1 1017.1 5.8
17/10:30pm 16.9 18.4 16.7 99 0.1 N 4 7 2 4 1017.0 1017.0 5.8
17/10:00pm 17.0 18.8 16.5 97 0.3 WSW 2 9 1 5 1016.3 1016.3 5.8
17/09:56pm 17.1 19.3 16.6 97 0.3 CALM 0 6 0 3 1016.3 1016.3 5.6
17/09:34pm 17.2 18.3 16.6 96 0.4 NW 6 7 3 4 1016.9 1016.9 4.4
17/09:30pm 17.2 18.1 16.6 96 0.4 W 7 9 4 5 1016.9 1016.9 4.0
17/09:00pm 17.8 18.9 16.7 93 0.7 N 6 7 3 4 1016.9 1016.9 3.0
17/08:38pm 18.0 19.1 16.7 92 0.8 NNW 6 7 3 4 1016.8 1016.8 2.6
17/08:30pm 18.1 18.5 16.4 90 1.0 NNE 9 13 5 7 1017.1 1017.1 2.2
17/08:17pm 18.8 17.7 16.4 86 1.4 NNW 17 20 9 11 1017.2 1017.2 1.2
17/08:16pm 19.0 17.9 16.4 85 1.6 N 17 20 9 11 1017.2 1017.2 0.8
17/08:00pm 20.2 20.3 18.3 89 1.2 NNE 15 20 8 11 1016.6 1016.6 0.4
17/07:31pm 20.0 19.4 18.5 91 0.9 NE 19 26 10 14 1016.0 1016.0 0.4
17/07:30pm 20.0 19.4 18.5 91 0.9 NE 19 26 10 14 1016.0 1016.0 0.4
17/07:00pm 20.0 19.9 18.7 92 0.8 NE 17 24 9 13 1015.7 1015.7 0.4
17/06:30pm 20.2 19.7 18.7 91 0.9 NE 19 26 10 14 1015.1 1015.1 0.4
17/06:00pm 19.9 20.2 18.7 93 0.7 NNE 15 24 8 13 1014.8 1014.8 0.4
17/05:30pm 19.8 19.4 19.0 95 0.5 NE 19 26 10 14 1014.6 1014.6 0.4
17/05:00pm 19.9 20.0 19.1 95 0.5 NE 17 20 9 11 1014.6 1014.6 0.4
17/04:30pm 20.2 20.2 18.9 92 0.8 ENE 17 22 9 12 1014.8 1014.8 0.2
17/04:00pm 21.0 20.4 18.9 88 1.3 NE 20 28 11 15 1015.1 1015.1 0.0
17/03:30pm 21.2 21.0 18.4 84 1.7 NE 17 22 9 12 1015.2 1015.2 0.0
17/03:00pm 21.2 20.3 18.2 83 1.9 NE 20 24 11 13 1015.2 1015.2 0.0
17/02:30pm 21.4 20.8 18.4 83 1.9 NE 19 20 10 11 1015.5 1015.5 0.0
17/02:00pm 21.4 22.1 18.0 81 2.1 NNE 11 19 6 10 1015.8 1015.8 0.0
17/01:30pm 20.8 20.8 18.2 85 1.6 NE 15 20 8 11 1016.2 1016.2 0.0
17/01:00pm 21.4 21.3 17.8 80 2.2 NE 15 20 8 11 1016.3 1016.3 0.0
17/12:30pm 21.2 20.4 18.4 84 1.7 NE 20 26 11 14 1016.5 1016.5 0.0
17/12:00pm 21.0 20.0 18.0 83 1.9 ENE 20 24 11 13 1016.7 1016.7 0.0
17/11:30am 20.7 19.6 17.7 83 1.8 NE 20 28 11 15 1017.0 1017.0 0.0
17/11:00am 21.8 21.3 17.8 78 2.5 NE 17 26 9 14 1017.1 1017.1 0.0
17/10:48am 21.7 20.6 16.4 72 3.2 NNE 17 24 9 13 1017.3 1017.3 0.0
17/10:30am 21.3 19.8 16.3 73 3.0 N 19 26 10 14 1017.5 1017.5 0.0
17/10:23am 21.0 19.4 16.0 73 3.0 NNW 19 24 10 13 1017.5 1017.5 0.0
17/10:00am 20.8 19.1 15.8 73 3.0 N 19 26 10 14 1017.6 1017.6 0.0
17/09:59am 20.9 19.3 15.9 73 3.0 N 19 26 10 14 1017.6 1017.6 0.0
17/09:30am 20.7 19.7 16.7 78 2.4 NNW 17 20 9 11 1017.7 1017.7 0.0
17/09:00am 19.9 19.5 16.3 80 2.2 N 13 17 7 9 1017.9 1017.9 0.4
17/08:40am 19.6 19.4 16.6 83 1.8 NNW 13 17 7 9 1017.9 1017.9 0.4
17/08:30am 19.2 19.4 16.8 86 1.4 N 11 17 6 9 1018.0 1018.0 0.4
17/08:00am 18.5 19.3 17.2 92 0.8 NNW 9 13 5 7 1018.1 1018.1 0.4
17/07:30am 18.0 19.4 17.4 96 0.4 N 6 7 3 4 1018.0 1018.0 0.4
17/07:17am 17.8 19.0 17.3 97 0.3 N 7 7 4 4 1018.1 1018.1 0.4
17/07:00am 17.5 19.5 17.0 97 0.3 NNE 2 7 1 4 1018.0 1018.0 0.4
17/06:46am 17.5 19.9 16.9 96 0.4 CALM 0 0 0 0 1018.0 1018.0 0.4
17/06:30am 17.4 19.6 16.4 94 0.6 CALM 0 0 0 0 1018.0 1018.0 0.4
17/06:16am 17.4 19.5 16.3 93 0.7 CALM 0 0 0 0 1017.8 1017.8 0.4
17/06:00am 17.7 19.0 16.2 91 0.9 WNW 4 7 2 4 1017.6 1017.6 0.0
17/05:56am 17.8 18.8 16.3 91 0.9 NW 6 7 3 4 1017.5 1017.5 0.0
17/05:30am 18.2 18.6 16.2 88 1.2 NNW 9 11 5 6 1017.2 1017.2 0.0
17/05:17am 18.4 19.1 16.0 86 1.4 N 7 9 4 5 1017.1 1017.1 0.0
17/05:00am 18.3 18.6 16.1 87 1.3 NNE 9 11 5 6 1017.1 1017.1 0.0
17/04:30am 18.6 19.0 16.4 87 1.3 NE 9 13 5 7 1017.3 1017.3 0.0
17/04:00am 18.4 19.0 15.3 82 1.8 N 6 7 3 4 1017.4 1017.4 0.0
17/03:30am 18.8 18.8 15.3 80 2.1 N 9 13 5 7 1017.7 1017.7 0.0
17/03:00am 18.9 19.7 14.8 77 2.4 N 4 11 2 6 1017.9 1017.9 0.0
17/02:30am 19.0 19.0 15.1 78 2.3 NNE 9 13 5 7 1018.4 1018.4 0.0
17/02:00am 18.7 17.6 15.2 80 2.0 N 15 24 8 13 1018.8 1018.8 0.0
17/01:30am 18.1 18.5 15.2 83 1.7 N 7 9 4 5 1019.3 1019.3 0.0
17/01:00am 18.6 18.1 14.9 79 2.1 NNE 11 17 6 9 1019.3 1019.3 0.0
17/12:30am 18.4 18.5 15.5 83 1.7 NE 9 15 5 8 1019.5 1019.5 0.0
17/12:00am 17.4 19.2 15.6 89 1.1 CALM 0 0 0 0 1019.9 1019.9 0.0
 
Date/Time
EDT
Temp
°C
App
Temp
°C
Dew
Point
°C
Rel
Hum
%
Delta-T
°C
Wind Press
QNH
hPa
Press
MSL
hPa
Rain since
9am
mm
Dir  Spd
km/h
Gust
km/h
Spd
kts
Gust
kts
16/11:30pm 17.9 18.4 15.0 83 1.7 NNE 6 9 3 5 1020.1 1020.1 0.0
16/11:00pm 18.8 19.3 15.5 81 1.9 NNE 7 11 4 6 1020.0 1020.0 0.0
16/10:30pm 18.4 18.8 16.2 87 1.3 NNE 9 15 5 8 1020.2 1020.2 0.0
16/10:00pm 17.2 18.3 15.7 91 0.9 N 4 7 2 4 1020.4 1020.4 0.0
16/09:30pm 17.3 17.2 14.9 86 1.4 NNW 9 15 5 8 1020.4 1020.4 0.0
16/09:00pm 19.1 18.7 16.1 83 1.8 NNE 13 19 7 10 1020.1 1020.1 0.0
16/08:30pm 19.2 18.8 16.2 83 1.8 NNE 13 20 7 11 1019.9 1019.9 0.0
16/08:00pm 19.3 19.3 16.2 82 1.8 NNE 11 17 6 9 1019.9 1019.9 0.0
16/07:30pm 19.7 18.0 16.3 81 2.0 NNE 20 28 11 15 1019.5 1019.5 0.0
16/07:00pm 20.0 18.4 16.4 80 2.2 NNE 20 32 11 17 1019.3 1019.3 0.0
16/06:30pm 20.2 17.7 16.2 78 2.4 NE 24 35 13 19 1019.4 1019.4 0.0
16/06:00pm 20.5 17.9 15.9 75 2.7 NE 24 35 13 19 1019.3 1019.3 0.0
16/05:30pm 20.6 17.4 16.2 76 2.6 NE 28 43 15 23 1019.3 1019.3 0.0
16/05:00pm 21.2 18.0 16.4 74 2.9 NE 28 43 15 23 1019.4 1019.4 0.0
16/04:30pm 21.2 17.3 16.4 74 2.9 NE 32 46 17 25 1019.3 1019.3 0.0
16/04:00pm 21.6 17.8 16.6 73 3.0 NE 32 43 17 23 1019.4 1019.4 0.0
16/03:30pm 21.7 17.9 15.8 69 3.5 NE 30 39 16 21 1019.5 1019.5 0.0
16/03:00pm 22.0 18.1 16.5 71 3.3 NE 32 43 17 23 1019.8 1019.8 0.0
16/02:30pm 22.4 19.2 17.3 73 3.1 NE 30 43 16 23 1020.1 1020.1 0.0
16/02:00pm 22.2 19.1 16.5 70 3.5 NE 28 39 15 21 1020.5 1020.5 0.0
16/01:30pm 22.2 19.2 16.9 72 3.2 NE 28 39 15 21 1021.0 1021.0 0.0
16/01:00pm 22.5 20.0 17.2 72 3.3 NE 26 35 14 19 1021.4 1021.4 0.0
16/12:30pm 21.6 18.2 16.8 74 2.9 NE 30 43 16 23 1021.7 1021.7 0.0
16/12:00pm 22.1 21.0 17.7 76 2.7 NE 20 30 11 16 1022.1 1022.1 0.0
16/11:30am 21.1 19.6 16.7 76 2.7 NE 20 30 11 16 1022.6 1022.6 0.0
16/11:00am 19.9 18.1 16.9 83 1.8 NE 22 30 12 16 1023.0 1023.0 0.0
16/10:30am 21.5 20.3 16.2 72 3.2 NNE 17 26 9 14 1023.1 1023.1 0.0
16/10:00am 21.2 18.9 15.7 71 3.3 N 22 32 12 17 1023.3 1023.3 0.0
16/09:30am 20.4 18.6 15.4 73 3.0 N 19 26 10 14 1023.5 1023.5 0.0
16/09:00am 20.1 17.8 15.7 76 2.6 NNW 22 30 12 16 1023.3 1023.3 9.8
16/08:30am 19.9 18.9 15.7 77 2.5 N 15 20 8 11 1023.3 1023.3 9.8
16/08:00am 19.4 18.4 15.5 78 2.3 N 15 20 8 11 1023.3 1023.3 9.8
16/07:30am 17.8 18.6 16.3 91 0.9 NNW 7 9 4 5 1023.2 1023.2 9.8
16/07:00am 16.3 17.3 16.3 100 0.0 N 6 7 3 4 1023.2 1023.2 9.8
16/06:30am 16.0 17.2 15.8 99 0.1 WSW 4 7 2 4 1022.8 1022.8 9.8
16/06:00am 16.0 18.0 16.0 100 0.0 CALM 0 0 0 0 1022.6 1022.6 9.8
16/05:30am 16.0 16.9 16.0 100 0.0 WNW 6 7 3 4 1022.5 1022.5 9.8
16/05:08am 16.0 17.9 15.8 99 0.1 CALM 0 0 0 0 1022.5 1022.5 9.8
16/05:00am 15.9 17.8 15.7 99 0.1 CALM 0 0 0 0 1022.4 1022.4 9.8
16/04:56am 15.8 17.6 15.6 99 0.1 CALM 0 0 0 0 1022.3 1022.3 9.8
16/04:30am 15.9 17.8 15.7 99 0.1 CALM 0 0 0 0 1022.3 1022.3 9.8
16/04:00am 15.9 17.4 15.7 99 0.1 WNW 2 6 1 3 1022.5 1022.5 9.8
16/03:30am 16.1 17.7 15.9 99 0.1 W 2 7 1 4 1022.6 1022.6 9.8
16/03:00am 16.0 16.8 15.8 99 0.1 W 6 9 3 5 1022.9 1022.9 9.8
16/02:56am 16.0 17.2 15.8 99 0.1 NW 4 7 2 4 1022.9 1022.9 9.8
16/02:46am 16.3 17.3 16.3 100 0.0 N 6 9 3 5 1023.1 1023.1 9.8
16/02:35am 16.6 17.6 16.4 99 0.1 NE 6 9 3 5 1023.2 1023.2 9.8
16/02:30am 16.0 16.8 15.8 99 0.1 NNE 6 7 3 4 1023.1 1023.1 9.8
16/02:27am 16.1 16.9 15.9 99 0.1 NNE 6 7 3 4 1023.1 1023.1 9.8
16/02:00am 15.8 16.9 15.6 99 0.1 NW 4 7 2 4 1023.4 1023.4 9.6
16/01:58am 15.8 16.5 15.6 99 0.1 NNW 6 7 3 4 1023.5 1023.5 9.6
16/01:57am 15.8 16.5 15.6 99 0.1 N 6 7 3 4 1023.5 1023.5 9.6
16/01:30am 15.9 17.8 15.7 99 0.1 CALM 0 0 0 0 1023.8 1023.8 9.6
16/01:00am 15.9 17.8 15.7 99 0.1 CALM 0 4 0 2 1024.5 1024.5 9.6
16/12:32am 15.7 16.4 15.5 99 0.1 NNW 6 9 3 5 1024.7 1024.7 9.6
16/12:30am 15.7 16.4 15.5 99 0.1 NNW 6 9 3 5 1024.7 1024.7 9.6
16/12:19am 15.3 15.6 15.1 99 0.1 W 7 9 4 5 1024.7 1024.7 9.6
16/12:12am 15.3 15.3 15.1 99 0.1 WSW 9 9 5 5 1024.8 1024.8 9.6
16/12:00am 15.7 16.2 15.5 99 0.1 SW 7 9 4 5 1024.7 1024.7 9.6
 
Date/Time
EDT
Temp
°C
App
Temp
°C
Dew
Point
°C
Rel
Hum
%
Delta-T
°C
Wind Press
QNH
hPa
Press
MSL
hPa
Rain since
9am
mm
Dir  Spd
km/h
Gust
km/h
Spd
kts
Gust
kts
15/11:30pm 16.8 17.7 16.6 99 0.1 N 7 9 4 5 1024.9 1024.9 9.6
15/11:22pm 16.8 17.3 16.6 99 0.1 N 9 13 5 7 1024.9 1024.9 9.6
15/11:21pm 16.8 17.3 16.6 99 0.1 N 9 13 5 7 1024.9 1024.9 9.6
15/11:00pm 16.3 18.3 16.1 99 0.1 CALM 0 7 0 4 1024.9 1024.9 9.0
15/10:58pm 16.2 18.2 16.0 99 0.1 CALM 0 0 0 0 1024.9 1024.9 8.8
15/10:42pm 15.8 17.6 15.6 99 0.1 CALM 0 0 0 0 1024.8 1024.8 8.8
15/10:30pm 15.6 17.3 15.3 98 0.2 CALM 0 0 0 0 1024.9 1024.9 8.8
15/10:00pm 16.8 18.5 16.2 96 0.4 NNW 2 9 1 5 1025.0 1025.0 8.8
15/09:37pm 17.3 17.8 16.5 95 0.5 NE 9 11 5 6 1025.1 1025.1 8.8
15/09:30pm 17.4 17.9 16.6 95 0.5 NNE 9 15 5 8 1025.2 1025.2 8.8
15/09:27pm 17.5 18.1 16.7 95 0.5 NNE 9 15 5 8 1025.1 1025.1 8.8
15/09:17pm 17.5 17.3 16.7 95 0.5 NNE 13 17 7 9 1025.2 1025.2 8.8
15/09:11pm 17.6 17.4 16.8 95 0.5 NNE 13 20 7 11 1025.2 1025.2 8.8
15/09:04pm 17.7 16.8 16.9 95 0.5 N 17 24 9 13 1025.2 1025.2 8.8
15/09:00pm 17.8 17.0 17.0 95 0.5 N 17 24 9 13 1025.2 1025.2 8.8
15/08:59pm 17.8 17.3 17.0 95 0.5 N 15 22 8 12 1025.2 1025.2 8.8
15/08:43pm 17.9 17.9 17.3 96 0.4 NNE 13 17 7 9 1025.1 1025.1 8.8

Other Formats:

Comma delimited format used in spreadsheet applications
http://www.bom.gov.au/fwo/IDN60801/IDN60801.95748.axf

JavaScript Object Notation format (JSON) in row-major order
http://www.bom.gov.au/fwo/IDN60801/IDN60801.95748.json